Overview Statistics Trail Chart Weather Telemetry Raw packets
 

This is the latest recevied weather packets stored in our database for station/object OE6JVE-13. If no packets are shown the sender has not sent any weather packets the latest 10 day(s).

<< 28 29 30 31 32 33 34 >>
Time Temp. Humidity Pressure Rain* Wind** Luminosity Snow
1788205926 17.78° C 94% 1009 hPa 0 mm - - -
1788205258 18.33° C 94% 1008.7 hPa 0 mm - - -
1788204058 18.33° C 94% 1008.8 hPa 0 mm - - -
1788203466 18.33° C 93% 1008.7 hPa 0 mm - - -
1788202872 18.89° C 93% 1008.6 hPa 0 mm - - -
1788202481 18.89° C 93% 1008.5 hPa 0 mm - - -
1788201030 18.89° C 90% 1007.7 hPa 0 mm - - -
1788200439 18.89° C 89% 1007.4 hPa 0.25 mm - - -
1788199846 19.44° C 88% 1007.2 hPa 0.25 mm - - -
1788199255 19.44° C 86% 1007 hPa 1.02 mm - - -
1788198662 19.44° C 84% 1006.9 hPa 1.02 mm - - -
1788198070 20° C 82% 1006.8 hPa 1.02 mm - - -
1788197478 20.56° C 79% 1006.8 hPa 1.02 mm - - -
1788196820 21.11° C 73% 1006.5 hPa 0.76 mm - - -
1788196329 23.89° C 61% 1006.5 hPa 0.76 mm - - -
1788195635 26.11° C 49% 1005.8 hPa 0 mm - - -
1788195044 25.56° C 55% 1005.1 hPa 0 mm - - -
1788194451 26.11° C 54% 1004.9 hPa 0 mm - - -
1788193859 26.11° C 51% 1004.9 hPa 0 mm - - -
1788193267 26.11° C 53% 1004.9 hPa 0 mm - - -
1788192675 26.67° C 53% 1004.9 hPa 0 mm - - -
1788192018 26.67° C 52% 1005 hPa 0 mm - - -
1788191425 27.78° C 45% 1004.9 hPa 0 mm - - -
1788190833 28.89° C 41% 1004.8 hPa 0 mm - - -
1788190241 30.56° C 39% 1004.7 hPa 0 mm - - -

* Rain latest hour (hover to see other rain measurements)
** Current wind speed in m/s (hover to see current wind gust speed)